createdAt,value
2023-04-23T00:01:28.977Z,62.00
2023-04-23T00:03:33.454Z,61.90
2023-04-23T00:05:37.852Z,61.90
2023-04-23T00:07:41.675Z,61.90
2023-04-23T00:09:45.453Z,61.90
2023-04-23T00:11:49.251Z,62.50
2023-04-23T00:13:52.809Z,61.90
2023-04-23T00:15:57.686Z,62.30
2023-04-23T00:18:00.783Z,62.50
2023-04-23T00:20:03.629Z,62.60
2023-04-23T00:22:06.608Z,62.70
2023-04-23T00:24:09.411Z,62.70
2023-04-23T00:26:12.405Z,62.50
2023-04-23T00:28:15.303Z,62.50
2023-04-23T00:30:18.968Z,62.40
2023-04-23T00:32:23.824Z,62.50
2023-04-23T00:34:27.562Z,62.70
2023-04-23T00:36:30.465Z,62.70
2023-04-23T00:38:33.368Z,62.90
2023-04-23T00:40:36.474Z,62.90
2023-04-23T00:42:40.541Z,63.00
2023-04-23T00:44:43.983Z,63.40
2023-04-23T00:46:48.262Z,63.40
2023-04-23T00:48:53.377Z,63.50
2023-04-23T00:51:00.485Z,63.60
2023-04-23T00:53:04.901Z,63.80
2023-04-23T00:55:09.153Z,63.80
2023-04-23T00:57:13.479Z,64.00
2023-04-23T00:59:16.716Z,64.00
2023-04-23T01:01:20.938Z,64.10
2023-04-23T01:03:25.591Z,64.20
2023-04-23T01:05:30.912Z,64.30
2023-04-23T01:07:36.036Z,64.30
2023-04-23T01:09:39.119Z,64.60
2023-04-23T01:11:44.716Z,64.50
2023-04-23T01:13:47.510Z,64.80
2023-04-23T01:15:50.568Z,64.70
2023-04-23T01:17:53.776Z,64.80
2023-04-23T01:19:57.606Z,64.90
2023-04-23T01:22:03.478Z,65.30
2023-04-23T01:24:09.361Z,65.50
2023-04-23T01:26:12.226Z,65.80
2023-04-23T01:28:16.305Z,65.80
2023-04-23T01:30:19.240Z,66.00
2023-04-23T01:32:22.945Z,66.20
2023-04-23T01:34:25.833Z,66.40
2023-04-23T01:36:29.035Z,66.50
2023-04-23T01:38:36.389Z,66.70
2023-04-23T01:40:40.554Z,67.70
2023-04-23T01:42:43.886Z,67.10
2023-04-23T01:44:46.848Z,67.20
2023-04-23T01:46:49.692Z,67.60
2023-04-23T01:48:52.681Z,67.80
2023-04-23T01:50:55.869Z,67.90
2023-04-23T01:52:58.683Z,67.80
2023-04-23T01:55:03.010Z,67.80
2023-04-23T01:57:07.270Z,68.00
2023-04-23T01:59:10.098Z,68.20
2023-04-23T02:01:13.171Z,68.10
2023-04-23T02:03:16.355Z,68.60
2023-04-23T02:05:21.506Z,68.80
2023-04-23T02:07:24.749Z,69.20
2023-04-23T02:09:27.500Z,69.60
2023-04-23T02:11:30.277Z,69.50
2023-04-23T02:13:34.490Z,69.80
2023-04-23T02:15:39.177Z,69.80
2023-04-23T02:17:42.290Z,70.20
2023-04-23T02:19:46.668Z,70.60
2023-04-23T02:21:49.455Z,71.20
2023-04-23T02:23:52.467Z,71.00
2023-04-23T02:25:57.536Z,71.10
2023-04-23T02:28:06.303Z,71.50
2023-04-23T02:30:11.636Z,71.70
2023-04-23T02:32:14.553Z,71.90
2023-04-23T02:34:17.392Z,71.90
2023-04-23T02:36:20.457Z,71.90
2023-04-23T02:38:24.569Z,72.50
2023-04-23T02:40:27.342Z,72.50
2023-04-23T02:42:30.169Z,72.60
2023-04-23T02:44:33.021Z,72.80
2023-04-23T02:46:37.607Z,73.00
2023-04-23T02:48:41.741Z,73.20
2023-04-23T02:50:44.765Z,73.70
2023-04-23T02:52:49.758Z,73.80
2023-04-23T02:54:52.666Z,74.10
2023-04-23T02:56:57.409Z,74.10
2023-04-23T02:59:01.375Z,74.40
2023-04-23T03:01:05.195Z,74.20
2023-04-23T03:03:12.506Z,74.60
2023-04-23T03:05:15.662Z,74.80
2023-04-23T03:07:18.611Z,74.90
2023-04-23T03:09:21.368Z,75.20
2023-04-23T03:11:24.237Z,75.20
2023-04-23T03:13:27.643Z,75.40
2023-04-23T03:15:30.455Z,76.40
2023-04-23T03:17:33.439Z,75.90
2023-04-23T03:19:37.790Z,76.00
2023-04-23T03:21:41.036Z,76.20
2023-04-23T03:23:44.090Z,76.20
2023-04-23T03:25:47.125Z,76.90
2023-04-23T03:27:52.294Z,77.30
2023-04-23T03:29:55.096Z,77.30
2023-04-23T03:31:59.139Z,77.10
2023-04-23T03:34:01.967Z,77.30
2023-04-23T03:36:06.689Z,77.30
2023-04-23T03:38:09.501Z,77.50
2023-04-23T03:40:12.692Z,77.50
2023-04-23T03:42:16.300Z,77.60
2023-04-23T03:44:19.204Z,77.50
2023-04-23T03:46:22.029Z,77.60
2023-04-23T03:48:24.880Z,77.70
2023-04-23T03:50:27.703Z,77.90
2023-04-23T03:52:31.737Z,77.90
2023-04-23T03:54:34.534Z,77.90
2023-04-23T03:56:37.407Z,78.20
2023-04-23T03:58:40.235Z,78.60
2023-04-23T04:00:43.035Z,78.90
2023-04-23T04:02:45.939Z,78.90
2023-04-23T04:04:51.790Z,78.90
2023-04-23T04:06:54.707Z,78.90
2023-04-23T04:08:58.758Z,79.00
2023-04-23T04:11:02.153Z,79.00
2023-04-23T04:13:04.951Z,79.10
2023-04-23T04:15:08.777Z,79.10
2023-04-23T04:17:12.432Z,79.20
2023-04-23T04:19:18.234Z,79.30
2023-04-23T04:21:21.009Z,79.30
2023-04-23T04:23:23.779Z,79.40
2023-04-23T04:25:28.830Z,79.80
2023-04-23T04:27:33.389Z,80.70
2023-04-23T04:29:36.214Z,80.60
2023-04-23T04:31:39.652Z,81.00
2023-04-23T04:33:43.278Z,83.40
2023-04-23T04:35:46.625Z,83.50
2023-04-23T04:37:49.882Z,83.30
2023-04-23T04:39:52.736Z,82.10
2023-04-23T04:41:59.969Z,82.30
2023-04-23T04:44:02.823Z,82.20
2023-04-23T04:46:07.501Z,82.50
2023-04-23T04:48:10.529Z,82.50
2023-04-23T04:50:13.323Z,83.60
2023-04-23T04:52:16.058Z,83.20
2023-04-23T04:54:18.825Z,83.50
2023-04-23T04:56:22.406Z,83.90
2023-04-23T04:58:26.577Z,83.80
2023-04-23T05:00:32.021Z,84.10
2023-04-23T05:02:35.954Z,84.40
2023-04-23T05:04:38.947Z,85.50
2023-04-23T05:06:41.829Z,85.80
2023-04-23T05:08:48.083Z,85.20
2023-04-23T05:10:51.321Z,85.60
2023-04-23T05:12:54.656Z,86.40
2023-04-23T05:14:58.748Z,85.80
2023-04-23T05:17:01.760Z,86.40
2023-04-23T05:19:04.536Z,86.00
2023-04-23T05:21:07.420Z,85.80
2023-04-23T05:23:10.491Z,86.20
2023-04-23T05:25:13.767Z,86.20
2023-04-23T05:27:19.037Z,86.50
2023-04-23T05:29:21.855Z,86.20
2023-04-23T05:31:28.142Z,86.70
2023-04-23T05:33:39.197Z,86.20
2023-04-23T05:35:50.131Z,87.10
2023-04-23T05:37:53.275Z,87.00
2023-04-23T05:39:57.406Z,87.00
2023-04-23T05:42:00.253Z,87.80
2023-04-23T05:44:03.171Z,88.30
2023-04-23T05:46:07.320Z,88.20
2023-04-23T05:48:11.867Z,87.90
2023-04-23T05:50:15.061Z,87.70
2023-04-23T05:52:18.012Z,87.90
2023-04-23T05:54:20.787Z,88.00
2023-04-23T05:56:23.592Z,88.20
2023-04-23T05:58:27.656Z,88.40
2023-04-23T06:00:30.520Z,88.30
2023-04-23T06:02:34.336Z,88.20
2023-04-23T06:04:39.154Z,88.10
2023-04-23T06:06:43.038Z,87.70
2023-04-23T06:08:45.926Z,87.20
2023-04-23T06:10:48.719Z,87.10
2023-04-23T06:12:51.528Z,87.20
2023-04-23T06:14:54.756Z,87.10
2023-04-23T06:16:57.519Z,87.50
2023-04-23T06:19:00.242Z,87.40
2023-04-23T06:21:04.663Z,86.90
2023-04-23T06:23:07.774Z,86.40
2023-04-23T06:25:10.964Z,88.10
2023-04-23T06:27:14.733Z,88.00
2023-04-23T06:29:17.721Z,87.70
2023-04-23T06:31:20.692Z,87.10
2023-04-23T06:33:23.511Z,87.30
2023-04-23T06:35:26.322Z,87.50
2023-04-23T06:37:31.736Z,86.90
2023-04-23T06:39:35.008Z,85.80
2023-04-23T06:41:38.219Z,86.10
2023-04-23T06:43:45.943Z,85.10
2023-04-23T06:45:49.893Z,84.80
2023-04-23T06:47:53.332Z,85.60
2023-04-23T06:49:56.972Z,85.80
2023-04-23T06:52:00.060Z,85.40
2023-04-23T06:54:04.409Z,85.40
2023-04-23T06:56:07.899Z,84.90
2023-04-23T06:58:12.792Z,84.60
2023-04-23T07:00:18.317Z,84.40
2023-04-23T07:02:21.165Z,84.00
2023-04-23T07:04:23.923Z,82.80
2023-04-23T07:06:27.829Z,83.00
2023-04-23T07:08:30.649Z,82.90
2023-04-23T07:10:35.028Z,82.30
2023-04-23T07:12:38.275Z,82.60
2023-04-23T07:14:41.705Z,82.70
2023-04-23T07:16:52.592Z,82.30
2023-04-23T07:18:55.455Z,80.90
2023-04-23T07:20:58.263Z,81.00
2023-04-23T07:23:03.938Z,80.70
2023-04-23T07:25:10.917Z,80.40
2023-04-23T07:27:15.049Z,80.50
2023-04-23T07:29:18.334Z,80.30
2023-04-23T07:31:21.461Z,80.10
2023-04-23T07:33:24.503Z,80.10
2023-04-23T07:35:27.701Z,79.80
2023-04-23T07:37:30.645Z,78.50
2023-04-23T07:39:35.457Z,77.20
2023-04-23T07:41:38.612Z,77.70
2023-04-23T07:43:43.879Z,76.30
2023-04-23T07:45:48.135Z,75.30
2023-04-23T07:47:51.572Z,75.70
2023-04-23T07:49:54.569Z,75.80
2023-04-23T07:51:57.405Z,75.50
2023-04-23T07:54:00.281Z,76.00
2023-04-23T07:56:03.865Z,74.40
2023-04-23T07:58:09.085Z,74.80
2023-04-23T08:00:14.562Z,74.40
2023-04-23T08:02:18.471Z,69.20
2023-04-23T08:04:21.948Z,70.70
2023-04-23T08:06:24.865Z,70.70
2023-04-23T08:08:28.062Z,70.20
2023-04-23T08:10:30.985Z,70.70
2023-04-23T08:12:36.524Z,70.30
2023-04-23T08:14:40.734Z,71.80
2023-04-23T08:16:45.013Z,70.50
2023-04-23T08:18:58.130Z,71.00
2023-04-23T08:21:07.492Z,71.60
2023-04-23T08:23:10.727Z,66.20
2023-04-23T08:25:15.316Z,69.00
2023-04-23T08:27:18.498Z,69.50
2023-04-23T08:29:21.275Z,69.30
2023-04-23T08:31:27.066Z,66.60
2023-04-23T08:33:32.016Z,67.40
2023-04-23T08:35:34.945Z,66.00
2023-04-23T08:37:39.090Z,66.20
2023-04-23T08:39:44.474Z,64.70
2023-04-23T08:41:54.345Z,65.50
2023-04-23T08:44:10.522Z,64.10
2023-04-23T08:46:18.444Z,59.00
2023-04-23T08:48:22.452Z,61.40
2023-04-23T08:50:28.260Z,62.20
2023-04-23T08:52:35.379Z,63.90
2023-04-23T08:54:42.517Z,64.50
2023-04-23T08:56:46.778Z,64.70
2023-04-23T08:58:51.557Z,64.50
2023-04-23T09:00:56.292Z,64.50
2023-04-23T09:03:00.170Z,64.50
2023-04-23T09:05:04.551Z,64.80
2023-04-23T09:07:11.399Z,62.60
2023-04-23T09:09:17.431Z,63.20
2023-04-23T09:11:24.641Z,61.20
2023-04-23T09:13:27.532Z,61.40
2023-04-23T09:15:30.347Z,59.60
2023-04-23T09:17:35.806Z,60.70
2023-04-23T09:19:40.941Z,62.50
2023-04-23T09:21:45.379Z,63.80
2023-04-23T09:23:51.864Z,64.60
2023-04-23T09:25:54.767Z,63.70
2023-04-23T09:27:59.994Z,62.90
2023-04-23T09:30:05.250Z,60.70
2023-04-23T09:32:10.462Z,61.70
2023-04-23T09:34:13.715Z,63.10
2023-04-23T09:36:17.684Z,62.90
2023-04-23T09:38:21.329Z,62.80
2023-04-23T09:40:28.195Z,62.90
2023-04-23T09:42:31.477Z,63.20
2023-04-23T09:44:37.479Z,61.90
2023-04-23T09:46:42.233Z,61.60
2023-04-23T09:48:45.193Z,61.20
2023-04-23T09:50:48.226Z,61.10
2023-04-23T09:52:56.357Z,60.00
2023-04-23T09:55:00.326Z,60.50
2023-04-23T09:57:08.818Z,60.70
2023-04-23T09:59:48.801Z,61.50
2023-04-23T10:01:54.256Z,61.40
2023-04-23T10:03:58.100Z,61.40
2023-04-23T10:06:02.564Z,61.60
2023-04-23T10:08:06.905Z,59.50
2023-04-23T10:10:10.510Z,59.80
2023-04-23T10:14:22.861Z,58.30
2023-04-23T10:16:30.601Z,58.80
2023-04-23T10:18:41.802Z,58.20
2023-04-23T10:20:44.676Z,58.30
2023-04-23T10:22:47.997Z,59.00
2023-04-23T10:24:56.138Z,58.60
2023-04-23T10:27:02.766Z,58.50
2023-04-23T10:29:11.933Z,57.80
2023-04-23T10:31:14.967Z,57.70
2023-04-23T10:33:29.442Z,57.40
2023-04-23T10:35:35.297Z,57.50
2023-04-23T10:37:39.020Z,57.60
2023-04-23T10:39:47.208Z,58.10
2023-04-23T10:41:50.494Z,57.80
2023-04-23T10:43:54.943Z,58.50
2023-04-23T10:45:59.108Z,59.10
2023-04-23T10:48:02.063Z,58.80
2023-04-23T10:50:23.730Z,57.70
2023-04-23T10:52:26.643Z,56.90
2023-04-23T10:54:32.658Z,58.10
2023-04-23T10:56:36.154Z,57.30
2023-04-23T10:58:52.590Z,57.40
2023-04-23T11:00:56.096Z,56.20
2023-04-23T11:03:03.690Z,57.20
2023-04-23T11:05:10.536Z,56.90
2023-04-23T11:07:14.802Z,57.20
2023-04-23T11:09:40.043Z,57.70
2023-04-23T11:11:46.886Z,56.70
2023-04-23T11:13:57.326Z,55.70
2023-04-23T11:16:16.712Z,55.20
2023-04-23T11:18:25.815Z,56.20
2023-04-23T11:20:28.710Z,55.30
2023-04-23T11:22:36.919Z,53.60
2023-04-23T11:24:43.454Z,53.80
2023-04-23T11:26:48.548Z,53.50
2023-04-23T11:28:54.149Z,53.60
2023-04-23T11:30:57.152Z,53.00
2023-04-23T11:33:01.944Z,52.70
2023-04-23T11:35:11.421Z,52.70
2023-04-23T11:37:16.591Z,53.40
2023-04-23T11:39:21.089Z,54.50
2023-04-23T11:41:24.427Z,53.00
2023-04-23T11:43:29.387Z,53.80
2023-04-23T11:45:35.510Z,54.40
2023-04-23T11:47:38.332Z,53.80
2023-04-23T11:49:42.935Z,54.80
2023-04-23T11:51:50.461Z,54.80
2023-04-23T11:53:53.589Z,54.90
2023-04-23T11:55:56.671Z,54.80
2023-04-23T11:57:59.704Z,55.20
2023-04-23T12:00:04.684Z,55.20
2023-04-23T12:02:07.784Z,55.00
2023-04-23T12:04:12.385Z,54.60
2023-04-23T12:06:19.985Z,54.80
2023-04-23T12:08:26.319Z,54.40
2023-04-23T12:10:29.161Z,54.70
2023-04-23T12:12:36.072Z,55.60
2023-04-23T12:14:38.962Z,56.70
2023-04-23T12:16:43.093Z,54.80
2023-04-23T12:18:45.887Z,54.30
2023-04-23T12:20:48.689Z,53.80
2023-04-23T12:22:51.870Z,53.40
2023-04-23T12:24:56.087Z,53.70
2023-04-23T12:27:00.892Z,52.60
2023-04-23T12:29:03.932Z,53.00
2023-04-23T12:31:07.676Z,53.10
2023-04-23T12:33:12.991Z,53.10
2023-04-23T12:35:16.407Z,53.50
2023-04-23T12:37:19.227Z,54.30
2023-04-23T12:39:29.514Z,53.60
2023-04-23T12:41:35.229Z,53.50
2023-04-23T12:43:38.053Z,53.50
2023-04-23T12:45:41.020Z,52.80
2023-04-23T12:47:45.061Z,52.80
2023-04-23T12:49:54.234Z,53.60
2023-04-23T12:52:00.998Z,54.00
2023-04-23T12:54:04.074Z,53.60
2023-04-23T12:56:07.110Z,52.90
2023-04-23T12:58:11.422Z,53.50
2023-04-23T13:00:15.687Z,53.40
2023-04-23T13:02:18.646Z,52.80
2023-04-23T13:04:29.091Z,53.30
2023-04-23T13:06:31.923Z,53.80
2023-04-23T13:08:34.841Z,53.10
2023-04-23T13:10:40.835Z,53.50
2023-04-23T13:12:44.530Z,52.80
2023-04-23T13:14:48.957Z,52.80
2023-04-23T13:16:52.699Z,52.30
2023-04-23T13:18:56.564Z,51.90
2023-04-23T13:20:59.572Z,51.90
2023-04-23T13:23:03.106Z,52.20
2023-04-23T13:25:07.055Z,52.50
2023-04-23T13:27:09.933Z,52.50
2023-04-23T13:29:13.276Z,52.00
2023-04-23T13:31:17.793Z,51.80
2023-04-23T13:33:21.125Z,52.20
2023-04-23T13:35:24.618Z,52.50
2023-04-23T13:37:28.245Z,52.10
2023-04-23T13:39:31.030Z,51.80
2023-04-23T13:41:33.822Z,51.40
2023-04-23T13:43:36.573Z,51.60
2023-04-23T13:45:39.386Z,51.70
2023-04-23T13:47:46.010Z,50.80
2023-04-23T13:49:49.067Z,50.80
2023-04-23T13:51:56.268Z,51.20
2023-04-23T13:54:00.200Z,51.10
2023-04-23T13:56:03.195Z,50.80
2023-04-23T13:58:12.213Z,51.10
2023-04-23T14:00:16.418Z,51.40
2023-04-23T14:02:21.717Z,51.40
2023-04-23T14:04:27.235Z,51.50
2023-04-23T14:06:30.127Z,51.40
2023-04-23T14:08:33.204Z,51.00
2023-04-23T14:10:36.332Z,51.20
2023-04-23T14:12:39.974Z,50.70
2023-04-23T14:14:43.024Z,51.00
2023-04-23T14:16:46.175Z,50.60
2023-04-23T14:18:48.976Z,50.90
2023-04-23T14:20:54.925Z,50.60
2023-04-23T14:23:02.918Z,51.00
2023-04-23T14:25:10.966Z,50.30
2023-04-23T14:27:14.931Z,50.80
2023-04-23T14:29:28.375Z,51.00
2023-04-23T14:31:31.698Z,50.30
2023-04-23T14:33:34.594Z,50.20
2023-04-23T14:35:43.344Z,49.90
2023-04-23T14:37:47.735Z,50.50
2023-04-23T14:39:51.239Z,50.00
2023-04-23T14:41:54.525Z,47.00
2023-04-23T14:43:57.719Z,43.90
2023-04-23T14:46:01.493Z,41.30
2023-04-23T14:48:04.766Z,38.30
2023-04-23T14:50:10.715Z,35.80
2023-04-23T14:52:13.479Z,35.40
2023-04-23T14:54:17.807Z,34.50
2023-04-23T14:56:21.115Z,33.50
2023-04-23T14:58:24.216Z,32.90
2023-04-23T15:00:27.164Z,32.40
2023-04-23T15:02:30.066Z,33.90
2023-04-23T15:04:33.210Z,35.90
2023-04-23T15:06:37.300Z,37.90
2023-04-23T15:08:40.216Z,38.90
2023-04-23T15:10:47.268Z,39.60
2023-04-23T15:12:56.740Z,40.20
2023-04-23T15:14:59.610Z,39.40
2023-04-23T15:17:02.895Z,38.30
2023-04-23T15:19:07.312Z,36.80
2023-04-23T15:21:10.228Z,34.90
2023-04-23T15:23:13.003Z,32.10
2023-04-23T15:25:16.626Z,32.20
2023-04-23T15:27:22.015Z,33.10
2023-04-23T15:29:25.381Z,33.90
2023-04-23T15:31:28.454Z,34.80
2023-04-23T15:33:31.506Z,36.90
2023-04-23T15:35:34.423Z,38.30
2023-04-23T15:37:37.187Z,38.60
2023-04-23T15:39:40.468Z,39.20
2023-04-23T15:41:45.509Z,39.40
2023-04-23T15:43:53.102Z,40.10
2023-04-23T15:45:58.668Z,41.10
2023-04-23T15:48:01.681Z,42.00
2023-04-23T15:50:05.330Z,43.00
2023-04-23T15:52:08.134Z,43.30
2023-04-23T15:54:11.020Z,44.30
2023-04-23T15:56:15.054Z,43.50
2023-04-23T15:58:18.036Z,44.10
2023-04-23T16:00:29.765Z,43.80
2023-04-23T16:02:34.841Z,44.70
2023-04-23T16:04:42.895Z,45.40
2023-04-23T16:06:46.086Z,45.40
2023-04-23T16:08:48.962Z,46.10
2023-04-23T16:10:54.322Z,46.50
2023-04-23T16:12:58.469Z,46.70
2023-04-23T16:15:01.514Z,47.40
2023-04-23T16:17:05.741Z,47.10
2023-04-23T16:19:10.024Z,47.30
2023-04-23T16:21:12.828Z,47.30
2023-04-23T16:23:15.671Z,48.10
2023-04-23T16:25:19.094Z,47.90
2023-04-23T16:27:22.737Z,47.10
2023-04-23T16:29:25.788Z,47.20
2023-04-23T16:31:28.838Z,47.40
2023-04-23T16:33:33.299Z,47.40
2023-04-23T16:35:36.170Z,48.20
2023-04-23T16:37:39.176Z,48.60
2023-04-23T16:39:42.375Z,49.00
2023-04-23T16:41:45.811Z,49.00
2023-04-23T16:43:48.755Z,49.20
2023-04-23T16:45:51.599Z,49.70
2023-04-23T16:47:54.391Z,49.90
2023-04-23T16:49:58.729Z,49.90
2023-04-23T16:52:01.575Z,49.90
2023-04-23T16:54:05.509Z,50.40
2023-04-23T16:56:08.310Z,50.50
2023-04-23T16:58:11.112Z,50.60
2023-04-23T17:00:16.425Z,50.70
2023-04-23T17:02:19.503Z,50.90
2023-04-23T17:04:22.733Z,51.10
2023-04-23T17:06:31.296Z,51.40
2023-04-23T17:08:34.164Z,51.80
2023-04-23T17:10:37.065Z,51.90
2023-04-23T17:12:39.827Z,52.10
2023-04-23T17:14:42.834Z,52.40
2023-04-23T17:16:48.087Z,52.70
2023-04-23T17:18:50.866Z,53.30
2023-04-23T17:20:53.760Z,53.00
2023-04-23T17:22:57.890Z,53.10
2023-04-23T17:25:01.411Z,53.50
2023-04-23T17:27:04.330Z,53.90
2023-04-23T17:29:07.529Z,53.90
2023-04-23T17:31:11.262Z,53.90
2023-04-23T17:33:14.965Z,53.90
2023-04-23T17:35:19.325Z,54.00
2023-04-23T17:37:22.650Z,54.20
2023-04-23T17:39:26.926Z,54.40
2023-04-23T17:41:29.798Z,54.40
2023-04-23T17:43:35.213Z,54.50
2023-04-23T17:45:40.150Z,54.60
2023-04-23T17:47:43.242Z,54.70
2023-04-23T17:49:46.491Z,55.00
2023-04-23T17:51:49.284Z,55.00
2023-04-23T17:53:52.419Z,55.20
2023-04-23T17:56:00.253Z,55.50
2023-04-23T17:58:05.669Z,55.70
2023-04-23T18:00:12.386Z,55.90
2023-04-23T18:02:16.462Z,56.10
2023-04-23T18:04:19.698Z,56.20
2023-04-23T18:06:23.402Z,56.30
2023-04-23T18:08:26.958Z,56.20
2023-04-23T18:10:30.168Z,56.40
2023-04-23T18:12:34.973Z,56.50
2023-04-23T18:14:37.826Z,56.70
2023-04-23T18:16:40.647Z,56.80
2023-04-23T18:18:44.963Z,57.00
2023-04-23T18:20:47.790Z,57.00
2023-04-23T18:22:50.838Z,57.30
2023-04-23T18:24:53.704Z,57.50
2023-04-23T18:26:58.514Z,57.80
2023-04-23T18:29:02.703Z,58.10
2023-04-23T18:31:05.776Z,58.30
2023-04-23T18:33:14.766Z,58.50
2023-04-23T18:35:17.676Z,58.60
2023-04-23T18:37:35.715Z,58.50
2023-04-23T18:39:40.462Z,58.90
2023-04-23T18:41:43.794Z,58.60
2023-04-23T18:43:46.900Z,58.90
2023-04-23T18:45:51.648Z,58.90
2023-04-23T18:47:59.217Z,59.00
2023-04-23T18:50:05.324Z,59.20
2023-04-23T18:52:08.342Z,59.30
2023-04-23T18:54:14.802Z,59.00
2023-04-23T18:56:18.435Z,59.20
2023-04-23T18:58:22.774Z,59.50
2023-04-23T19:00:26.865Z,59.70
2023-04-23T19:02:35.601Z,59.70
2023-04-23T19:04:39.105Z,59.80
2023-04-23T19:06:42.585Z,59.90
2023-04-23T19:08:45.666Z,60.10
2023-04-23T19:10:48.598Z,60.60
2023-04-23T19:12:51.778Z,60.90
2023-04-23T19:14:54.710Z,60.70
2023-04-23T19:16:57.662Z,60.90
2023-04-23T19:19:01.757Z,61.10
2023-04-23T19:21:05.458Z,61.10
2023-04-23T19:23:09.095Z,61.20
2023-04-23T19:25:15.252Z,61.10
2023-04-23T19:27:18.543Z,61.40
2023-04-23T19:29:22.363Z,61.60
2023-04-23T19:31:26.455Z,61.40
2023-04-23T19:33:29.493Z,61.20
2023-04-23T19:35:33.726Z,61.10
2023-04-23T19:37:36.971Z,61.20
2023-04-23T19:39:40.150Z,61.10
2023-04-23T19:41:43.078Z,61.20
2023-04-23T19:43:45.842Z,61.30
2023-04-23T19:45:48.626Z,61.50
2023-04-23T19:47:51.537Z,61.70
2023-04-23T19:49:54.522Z,61.70
2023-04-23T19:51:59.211Z,61.90
2023-04-23T19:54:02.510Z,62.20
2023-04-23T19:56:08.419Z,62.00
2023-04-23T19:58:11.606Z,62.00
2023-04-23T20:00:18.334Z,61.90
2023-04-23T20:02:21.638Z,62.00
2023-04-23T20:04:24.795Z,61.90
2023-04-23T20:06:29.146Z,62.00
2023-04-23T20:08:42.084Z,61.80
2023-04-23T20:10:44.807Z,62.50
2023-04-23T20:12:47.679Z,62.60
2023-04-23T20:14:50.466Z,62.60
2023-04-23T20:16:55.962Z,62.70
2023-04-23T20:18:58.963Z,62.80
2023-04-23T20:21:01.777Z,63.10
2023-04-23T20:23:04.573Z,62.80
2023-04-23T20:25:10.271Z,63.30
2023-04-23T20:27:13.119Z,63.60
2023-04-23T20:29:17.262Z,63.30
2023-04-23T20:31:21.302Z,63.10
2023-04-23T20:33:24.567Z,63.10
2023-04-23T20:35:28.652Z,63.10
2023-04-23T20:37:31.463Z,62.90
2023-04-23T20:39:34.602Z,62.40
2023-04-23T20:41:38.842Z,62.10
2023-04-23T20:43:44.381Z,61.90
2023-04-23T20:45:47.536Z,61.90
2023-04-23T20:47:51.510Z,62.10
2023-04-23T20:49:54.350Z,62.70
2023-04-23T20:51:59.455Z,63.10
2023-04-23T20:54:02.917Z,63.40
2023-04-23T20:56:05.721Z,63.60
2023-04-23T20:58:09.953Z,63.70
2023-04-23T21:00:14.316Z,63.70
2023-04-23T21:02:17.218Z,63.80
2023-04-23T21:04:20.261Z,63.90
2023-04-23T21:06:23.804Z,64.60
2023-04-23T21:08:26.717Z,65.30
2023-04-23T21:10:29.480Z,65.30
2023-04-23T21:12:32.733Z,65.40
2023-04-23T21:14:44.192Z,65.70
2023-04-23T21:16:47.104Z,65.80
2023-04-23T21:18:49.896Z,65.90
2023-04-23T21:20:52.925Z,65.90
2023-04-23T21:22:55.973Z,66.00
2023-04-23T21:24:58.757Z,66.00
2023-04-23T21:27:04.378Z,66.30
2023-04-23T21:29:07.169Z,66.70
2023-04-23T21:31:18.903Z,66.70
2023-04-23T21:33:25.383Z,67.00
2023-04-23T21:35:28.118Z,67.20
2023-04-23T21:37:33.856Z,66.90
2023-04-23T21:39:36.648Z,67.00
2023-04-23T21:41:39.808Z,67.10
2023-04-23T21:43:42.654Z,67.10
2023-04-23T21:45:47.573Z,67.20
2023-04-23T21:47:51.797Z,67.30
2023-04-23T21:49:56.861Z,67.30
2023-04-23T21:52:00.483Z,67.60
2023-04-23T21:54:03.288Z,67.30
2023-04-23T21:56:06.699Z,67.10
2023-04-23T22:00:16.269Z,66.80
2023-04-23T22:02:19.465Z,66.80
2023-04-23T22:04:27.920Z,66.80
2023-04-23T22:06:32.390Z,66.90
2023-04-23T22:08:37.891Z,66.90
2023-04-23T22:10:43.473Z,66.80
2023-04-23T22:12:47.616Z,66.80
2023-04-23T22:14:50.557Z,66.90
2023-04-23T22:16:55.200Z,66.70
2023-04-23T22:19:02.627Z,66.80
2023-04-23T22:21:13.226Z,66.90
2023-04-23T22:23:16.290Z,66.90
2023-04-23T22:25:19.806Z,66.90
2023-04-23T22:27:22.759Z,66.80
2023-04-23T22:29:25.694Z,66.80
2023-04-23T22:31:36.063Z,66.80
2023-04-23T22:33:39.394Z,67.00
2023-04-23T22:35:42.464Z,67.10
2023-04-23T22:37:47.026Z,67.20
2023-04-23T22:39:50.308Z,67.30
2023-04-23T22:41:53.056Z,67.30
2023-04-23T22:43:56.313Z,67.60
2023-04-23T22:45:59.178Z,67.80
2023-04-23T22:48:02.362Z,68.00
2023-04-23T22:50:06.527Z,67.90
2023-04-23T22:52:11.725Z,68.20
2023-04-23T22:54:16.191Z,68.20
2023-04-23T22:56:20.113Z,68.20
2023-04-23T22:58:22.993Z,68.30
2023-04-23T23:00:26.409Z,68.20
2023-04-23T23:02:29.535Z,68.20
2023-04-23T23:04:32.744Z,68.30
2023-04-23T23:06:35.630Z,68.20
2023-04-23T23:08:38.406Z,68.20
2023-04-23T23:10:42.796Z,68.20
2023-04-23T23:12:45.572Z,68.40
2023-04-23T23:14:48.370Z,68.60
2023-04-23T23:16:51.245Z,68.70
2023-04-23T23:18:54.302Z,68.90
2023-04-23T23:20:57.312Z,68.90
2023-04-23T23:23:00.645Z,68.90
2023-04-23T23:25:03.452Z,69.00
2023-04-23T23:27:07.835Z,68.90
2023-04-23T23:29:10.758Z,69.00
2023-04-23T23:31:13.887Z,69.20
2023-04-23T23:33:16.894Z,69.20
2023-04-23T23:35:19.985Z,69.30
2023-04-23T23:37:22.853Z,69.40
2023-04-23T23:39:27.631Z,69.40
2023-04-23T23:41:30.419Z,69.50
2023-04-23T23:43:36.542Z,69.60
2023-04-23T23:45:39.370Z,69.80
2023-04-23T23:47:42.347Z,69.70
2023-04-23T23:49:45.594Z,69.90
2023-04-23T23:51:48.747Z,70.00
2023-04-23T23:53:52.908Z,70.20
2023-04-23T23:55:56.047Z,70.30
2023-04-23T23:57:58.832Z,70.60
